createdAt,value
2023-04-06T00:01:48.321Z,1.00
2023-04-06T00:06:42.494Z,1.25
2023-04-06T00:11:37.679Z,1.10
2023-04-06T00:16:30.795Z,1.00
2023-04-06T00:21:22.798Z,1.20
2023-04-06T00:26:14.684Z,1.40
2023-04-06T00:31:11.225Z,1.30
2023-04-06T00:36:03.061Z,1.27
2023-04-06T00:40:54.913Z,1.00
2023-04-06T00:45:47.050Z,1.10
2023-04-06T00:50:38.985Z,1.23
2023-04-06T00:55:30.928Z,1.08
2023-04-06T01:00:24.665Z,1.15
2023-04-06T01:05:23.181Z,1.08
2023-04-06T01:10:29.353Z,0.85
2023-04-06T01:15:32.066Z,1.20
2023-04-06T01:20:25.140Z,1.30
2023-04-06T01:25:17.882Z,1.10
2023-04-06T01:30:29.106Z,1.00
2023-04-06T01:35:33.623Z,1.25
2023-04-06T01:45:31.150Z,1.13
2023-04-06T01:50:30.247Z,1.25
2023-04-06T01:55:22.514Z,1.00
2023-04-06T02:00:34.572Z,1.17
2023-04-06T02:05:34.305Z,1.10
2023-04-06T02:10:27.199Z,0.90
2023-04-06T02:15:19.641Z,1.02
2023-04-06T02:20:11.657Z,1.00
2023-04-06T02:25:03.868Z,1.25
2023-04-06T02:29:56.131Z,1.20
2023-04-06T02:34:49.014Z,1.10
2023-04-06T02:39:43.497Z,1.20
2023-04-06T02:44:35.953Z,1.10
2023-04-06T02:49:28.097Z,0.90
2023-04-06T02:54:22.559Z,1.10
2023-04-06T02:59:20.592Z,1.03
2023-04-06T03:04:26.613Z,0.98
2023-04-06T03:09:24.903Z,1.35
2023-04-06T03:14:22.708Z,1.10
2023-04-06T03:19:15.382Z,1.40
2023-04-06T03:24:08.525Z,1.20
2023-04-06T03:29:00.398Z,1.02
2023-04-06T03:34:03.474Z,0.98
2023-04-06T03:38:59.059Z,1.25
2023-04-06T03:43:55.317Z,1.10
2023-04-06T03:48:50.077Z,1.05
2023-04-06T03:53:43.729Z,1.23
2023-04-06T03:58:36.518Z,1.00
2023-04-06T04:03:29.099Z,1.20
2023-04-06T04:08:21.040Z,1.20
2023-04-06T04:13:12.987Z,1.20
2023-04-06T04:18:08.262Z,0.90
2023-04-06T04:23:00.350Z,1.30
2023-04-06T04:27:56.522Z,1.30
2023-04-06T04:37:44.946Z,1.35
2023-04-06T04:42:38.845Z,1.20
2023-04-06T04:47:33.785Z,1.50
2023-04-06T04:52:26.090Z,1.20
2023-04-06T04:57:36.247Z,1.30
2023-04-06T05:02:30.621Z,1.40
2023-04-06T05:07:40.132Z,1.38
2023-04-06T05:12:46.191Z,1.20
2023-04-06T05:17:38.323Z,1.40
2023-04-06T05:22:46.574Z,10.55
2023-04-06T05:27:42.605Z,11.07
2023-04-06T05:32:57.167Z,7.90
2023-04-06T05:37:52.496Z,8.23
2023-04-06T05:42:48.999Z,7.10
2023-04-06T05:47:41.400Z,7.05
2023-04-06T05:52:47.652Z,7.57
2023-04-06T05:57:43.031Z,6.88
2023-04-06T06:02:35.752Z,6.45
2023-04-06T06:07:29.961Z,6.18
2023-04-06T06:12:26.873Z,5.70
2023-04-06T06:17:20.254Z,4.93
2023-04-06T06:22:13.437Z,4.80
2023-04-06T06:27:08.954Z,4.75
2023-04-06T06:32:03.566Z,5.57
2023-04-06T06:36:56.449Z,5.63
2023-04-06T06:42:02.494Z,5.00
2023-04-06T06:47:28.051Z,4.55
2023-04-06T06:52:25.140Z,4.88
2023-04-06T06:57:19.095Z,4.95
2023-04-06T07:02:12.298Z,5.20
2023-04-06T07:07:04.788Z,4.68
2023-04-06T07:11:57.862Z,4.68
2023-04-06T07:16:52.121Z,4.32
2023-04-06T07:21:52.308Z,4.82
2023-04-06T07:26:44.258Z,5.88
2023-04-06T07:31:46.259Z,4.10
2023-04-06T07:36:39.183Z,5.23
2023-04-06T07:41:31.322Z,4.68
2023-04-06T07:46:23.771Z,4.13
2023-04-06T07:51:19.852Z,4.40
2023-04-06T07:56:13.574Z,4.22
2023-04-06T08:01:05.700Z,8.43
2023-04-06T08:05:57.526Z,5.23
2023-04-06T08:10:49.803Z,4.82
2023-04-06T08:15:42.942Z,5.53
2023-04-06T08:25:30.794Z,5.40
2023-04-06T08:30:22.975Z,5.32
2023-04-06T08:35:15.938Z,4.80
2023-04-06T08:40:08.330Z,4.70
2023-04-06T08:45:01.365Z,4.43
2023-04-06T08:49:55.053Z,4.70
2023-04-06T08:54:47.161Z,4.57
2023-04-06T08:59:39.844Z,4.10
2023-04-06T09:04:33.735Z,4.07
2023-04-06T09:09:26.331Z,3.67
2023-04-06T09:14:18.534Z,4.15
2023-04-06T09:19:11.364Z,3.00
2023-04-06T09:24:04.721Z,3.10
2023-04-06T09:28:58.855Z,3.92
2023-04-06T09:33:51.467Z,3.65
2023-04-06T09:39:03.834Z,3.30
2023-04-06T09:44:04.792Z,3.90
2023-04-06T09:48:57.076Z,3.95
2023-04-06T09:53:54.142Z,4.10
2023-04-06T09:58:49.439Z,4.25
2023-04-06T10:03:54.854Z,3.90
2023-04-06T10:08:55.115Z,4.05
2023-04-06T10:13:49.896Z,4.72
2023-04-06T10:18:45.011Z,4.80
2023-04-06T10:23:47.901Z,4.65
2023-04-06T10:28:43.318Z,5.20
2023-04-06T10:33:36.839Z,4.53
2023-04-06T10:38:41.894Z,4.55
2023-04-06T10:43:38.366Z,5.80
2023-04-06T10:48:49.035Z,5.32
2023-04-06T10:53:46.343Z,5.68
2023-04-06T10:58:38.494Z,5.90
2023-04-06T11:03:30.930Z,5.90
2023-04-06T11:08:34.682Z,5.03
2023-04-06T11:13:26.581Z,5.93
2023-04-06T11:18:18.694Z,5.78
2023-04-06T11:23:11.160Z,5.20
2023-04-06T11:28:03.429Z,5.33
2023-04-06T11:33:02.437Z,5.60
2023-04-06T11:38:04.343Z,4.95
2023-04-06T11:42:58.848Z,5.25
2023-04-06T11:48:01.227Z,5.25
2023-04-06T11:53:04.393Z,5.47
2023-04-06T11:57:56.272Z,5.70
2023-04-06T12:02:50.083Z,5.07
2023-04-06T12:12:33.914Z,4.70
2023-04-06T12:17:25.828Z,5.10
2023-04-06T12:22:19.453Z,4.88
2023-04-06T12:27:12.677Z,4.68
2023-04-06T12:32:04.891Z,4.53
2023-04-06T12:37:03.839Z,4.37
2023-04-06T12:41:57.328Z,4.32
2023-04-06T12:46:54.634Z,3.75
2023-04-06T12:51:47.263Z,3.80
2023-04-06T12:56:39.157Z,4.47
2023-04-06T13:01:31.359Z,4.55
2023-04-06T13:06:23.457Z,3.87
2023-04-06T13:11:28.544Z,4.47
2023-04-06T13:16:22.386Z,3.22
2023-04-06T13:21:17.909Z,3.95
2023-04-06T13:26:10.192Z,3.58
2023-04-06T13:31:03.238Z,3.83
2023-04-06T13:35:55.416Z,3.10
2023-04-06T13:40:47.610Z,3.33
2023-04-06T13:45:39.921Z,3.27
2023-04-06T13:50:32.175Z,3.63
2023-04-06T13:55:27.256Z,3.87
2023-04-06T14:00:19.460Z,4.07
2023-04-06T14:05:11.893Z,3.60
2023-04-06T14:10:04.140Z,4.43
2023-04-06T14:14:56.332Z,4.77
2023-04-06T14:19:49.964Z,3.93
2023-04-06T14:24:41.935Z,4.63
2023-04-06T14:29:33.860Z,4.05
2023-04-06T14:34:27.878Z,3.78
2023-04-06T14:39:19.902Z,4.38
2023-04-06T14:44:13.476Z,3.60
2023-04-06T14:49:05.602Z,3.67
2023-04-06T14:53:58.561Z,3.60
2023-04-06T14:58:51.872Z,3.25
2023-04-06T15:03:44.075Z,3.55
2023-04-06T15:08:36.233Z,3.30
2023-04-06T15:13:27.993Z,3.92
2023-04-06T15:18:19.899Z,4.35
2023-04-06T15:23:11.822Z,4.55
2023-04-06T15:28:04.861Z,4.75
2023-04-06T15:37:49.359Z,5.50
2023-04-06T15:42:43.279Z,5.60
2023-04-06T15:47:43.486Z,5.03
2023-04-06T15:52:35.905Z,4.32
2023-04-06T15:57:27.764Z,4.30
2023-04-06T16:02:20.346Z,4.35
2023-04-06T16:07:12.322Z,4.78
2023-04-06T16:12:04.471Z,4.20
2023-04-06T16:16:56.302Z,5.00
2023-04-06T16:21:48.204Z,4.63
2023-04-06T16:26:40.184Z,4.30
2023-04-06T16:31:33.189Z,4.07
2023-04-06T16:36:27.655Z,3.95
2023-04-06T16:41:21.153Z,3.63
2023-04-06T16:46:30.273Z,3.47
2023-04-06T16:51:22.350Z,3.67
2023-04-06T16:56:14.153Z,2.95
2023-04-06T17:03:19.892Z,6.32
2023-04-06T17:08:11.842Z,10.40
2023-04-06T17:13:03.833Z,10.90
2023-04-06T17:17:56.078Z,6.72
2023-04-06T17:22:49.696Z,8.03
2023-04-06T17:27:41.650Z,7.10
2023-04-06T17:32:34.389Z,6.90
2023-04-06T17:37:30.866Z,5.55
2023-04-06T17:42:24.352Z,6.30
2023-04-06T17:47:17.596Z,5.25
2023-04-06T17:52:09.487Z,5.55
2023-04-06T17:57:03.553Z,5.47
2023-04-06T18:01:56.548Z,4.95
2023-04-06T18:06:49.630Z,5.35
2023-04-06T18:16:35.066Z,4.80
2023-04-06T18:21:27.517Z,4.55
2023-04-06T18:26:20.140Z,3.95
2023-04-06T18:31:12.146Z,4.47
2023-04-06T18:36:04.285Z,3.83
2023-04-06T18:41:26.857Z,4.10
2023-04-06T18:46:22.591Z,4.77
2023-04-06T18:51:14.847Z,4.07
2023-04-06T18:56:17.787Z,4.07
2023-04-06T19:01:10.014Z,3.47
2023-04-06T19:06:02.079Z,3.67
2023-04-06T19:10:54.183Z,3.90
2023-04-06T19:15:53.298Z,3.53
2023-04-06T19:20:46.453Z,3.80
2023-04-06T19:25:39.156Z,3.53
2023-04-06T19:30:30.992Z,3.58
2023-04-06T19:35:24.375Z,3.58
2023-04-06T19:40:16.294Z,3.45
2023-04-06T19:45:15.395Z,3.67
2023-04-06T19:50:11.595Z,3.08
2023-04-06T19:55:04.157Z,3.90
2023-04-06T19:59:56.718Z,3.35
2023-04-06T20:04:48.714Z,3.70
2023-04-06T20:09:40.917Z,3.30
2023-04-06T20:14:37.214Z,3.20
2023-04-06T20:19:29.079Z,3.58
2023-04-06T20:24:21.230Z,3.00
2023-04-06T20:29:13.451Z,3.10
2023-04-06T20:34:05.509Z,3.20
2023-04-06T20:38:57.490Z,3.13
2023-04-06T20:43:49.710Z,3.15
2023-04-06T20:48:41.828Z,2.60
2023-04-06T20:53:33.899Z,2.53
2023-04-06T20:58:26.307Z,2.57
2023-04-06T21:03:18.528Z,3.53
2023-04-06T21:08:11.637Z,3.40
2023-04-06T21:17:58.632Z,3.15
2023-04-06T21:22:50.700Z,2.30
2023-04-06T21:27:42.585Z,2.80
2023-04-06T21:32:35.632Z,2.63
2023-04-06T21:42:21.257Z,2.83
2023-04-06T21:47:14.250Z,2.72
2023-04-06T21:57:00.122Z,2.67
2023-04-06T22:01:56.267Z,2.85
2023-04-06T22:06:49.226Z,2.78
2023-04-06T22:11:46.129Z,3.00
2023-04-06T22:16:38.118Z,2.70
2023-04-06T22:21:30.877Z,2.75
2023-04-06T22:26:23.923Z,2.85
2023-04-06T22:31:21.881Z,2.67
2023-04-06T22:36:15.839Z,2.80
2023-04-06T22:41:08.543Z,3.03
2023-04-06T22:46:00.545Z,2.65
2023-04-06T22:50:52.804Z,2.22
2023-04-06T22:55:44.705Z,2.60
2023-04-06T23:00:36.666Z,2.42
2023-04-06T23:05:29.584Z,2.42
2023-04-06T23:10:21.998Z,2.50
2023-04-06T23:15:14.988Z,2.57
2023-04-06T23:25:00.228Z,1.90
2023-04-06T23:34:48.539Z,2.53
2023-04-06T23:39:40.572Z,2.38
2023-04-06T23:44:33.825Z,2.38
2023-04-06T23:49:25.670Z,2.30
2023-04-06T23:54:17.704Z,2.33
2023-04-06T23:59:09.703Z,2.40
